sensor_id;sensor_type;location;lat;lon;timestamp;P1;durP1;ratioP1;P2;durP2;ratioP2
6207;SDS011;3137;51.550;7.060;2023-12-14T00:00:05;13.27;;;10.37;;
6207;SDS011;3137;51.550;7.060;2023-12-14T00:02:34;10.13;;;9.13;;
6207;SDS011;3137;51.550;7.060;2023-12-14T00:05:01;10.27;;;9.40;;
6207;SDS011;3137;51.550;7.060;2023-12-14T00:07:27;9.47;;;8.60;;
6207;SDS011;3137;51.550;7.060;2023-12-14T00:09:54;15.17;;;9.07;;
6207;SDS011;3137;51.550;7.060;2023-12-14T00:12:20;9.73;;;8.73;;
6207;SDS011;3137;51.550;7.060;2023-12-14T00:14:46;9.80;;;8.83;;
6207;SDS011;3137;51.550;7.060;2023-12-14T00:17:13;7.90;;;7.40;;
6207;SDS011;3137;51.550;7.060;2023-12-14T00:19:39;8.07;;;7.33;;
6207;SDS011;3137;51.550;7.060;2023-12-14T00:22:06;7.37;;;6.97;;
6207;SDS011;3137;51.550;7.060;2023-12-14T00:24:32;7.83;;;7.10;;
6207;SDS011;3137;51.550;7.060;2023-12-14T00:27:00;11.70;;;6.83;;
6207;SDS011;3137;51.550;7.060;2023-12-14T00:29:26;7.97;;;7.37;;
6207;SDS011;3137;51.550;7.060;2023-12-14T00:31:53;8.00;;;7.23;;
6207;SDS011;3137;51.550;7.060;2023-12-14T00:34:19;6.87;;;6.63;;
6207;SDS011;3137;51.550;7.060;2023-12-14T00:36:46;6.90;;;6.70;;
6207;SDS011;3137;51.550;7.060;2023-12-14T00:39:12;6.33;;;6.03;;
6207;SDS011;3137;51.550;7.060;2023-12-14T00:41:39;6.93;;;6.33;;
6207;SDS011;3137;51.550;7.060;2023-12-14T00:44:05;7.40;;;6.73;;
6207;SDS011;3137;51.550;7.060;2023-12-14T00:46:32;6.80;;;6.20;;
6207;SDS011;3137;51.550;7.060;2023-12-14T00:48:58;6.87;;;6.40;;
6207;SDS011;3137;51.550;7.060;2023-12-14T00:51:24;7.03;;;6.73;;
6207;SDS011;3137;51.550;7.060;2023-12-14T00:53:51;6.17;;;5.97;;
6207;SDS011;3137;51.550;7.060;2023-12-14T00:56:17;6.20;;;5.90;;
6207;SDS011;3137;51.550;7.060;2023-12-14T00:58:47;6.43;;;6.13;;
6207;SDS011;3137;51.550;7.060;2023-12-14T01:01:13;6.97;;;6.50;;
6207;SDS011;3137;51.550;7.060;2023-12-14T01:03:40;7.10;;;6.70;;
6207;SDS011;3137;51.550;7.060;2023-12-14T01:06:06;6.20;;;5.93;;
6207;SDS011;3137;51.550;7.060;2023-12-14T01:08:33;7.00;;;6.80;;
6207;SDS011;3137;51.550;7.060;2023-12-14T01:10:59;6.50;;;6.23;;
6207;SDS011;3137;51.550;7.060;2023-12-14T01:13:26;6.17;;;5.97;;
6207;SDS011;3137;51.550;7.060;2023-12-14T01:15:53;6.63;;;6.17;;
6207;SDS011;3137;51.550;7.060;2023-12-14T01:18:19;6.13;;;5.90;;
6207;SDS011;3137;51.550;7.060;2023-12-14T01:20:46;7.33;;;6.27;;
6207;SDS011;3137;51.550;7.060;2023-12-14T01:23:13;7.53;;;7.20;;
6207;SDS011;3137;51.550;7.060;2023-12-14T01:25:39;10.07;;;7.67;;
6207;SDS011;3137;51.550;7.060;2023-12-14T01:28:06;8.50;;;7.97;;
6207;SDS011;3137;51.550;7.060;2023-12-14T01:30:32;8.73;;;7.97;;
6207;SDS011;3137;51.550;7.060;2023-12-14T01:32:58;10.93;;;10.03;;
6207;SDS011;3137;51.550;7.060;2023-12-14T01:35:25;9.47;;;8.67;;
6207;SDS011;3137;51.550;7.060;2023-12-14T01:37:51;9.67;;;8.97;;
6207;SDS011;3137;51.550;7.060;2023-12-14T01:40:18;9.97;;;9.23;;
6207;SDS011;3137;51.550;7.060;2023-12-14T01:42:46;10.30;;;9.50;;
6207;SDS011;3137;51.550;7.060;2023-12-14T01:45:12;10.97;;;9.83;;
6207;SDS011;3137;51.550;7.060;2023-12-14T01:47:44;12.43;;;10.53;;
6207;SDS011;3137;51.550;7.060;2023-12-14T01:50:11;13.70;;;11.80;;
6207;SDS011;3137;51.550;7.060;2023-12-14T01:52:38;16.33;;;12.10;;
6207;SDS011;3137;51.550;7.060;2023-12-14T01:55:04;16.00;;;12.47;;
6207;SDS011;3137;51.550;7.060;2023-12-14T01:57:31;14.67;;;11.90;;
6207;SDS011;3137;51.550;7.060;2023-12-14T01:59:58;15.40;;;11.73;;
6207;SDS011;3137;51.550;7.060;2023-12-14T02:02:24;18.87;;;12.47;;
6207;SDS011;3137;51.550;7.060;2023-12-14T02:04:51;25.63;;;13.40;;
6207;SDS011;3137;51.550;7.060;2023-12-14T02:07:18;21.40;;;14.33;;
6207;SDS011;3137;51.550;7.060;2023-12-14T02:09:45;27.63;;;14.07;;
6207;SDS011;3137;51.550;7.060;2023-12-14T02:12:12;25.27;;;14.47;;
6207;SDS011;3137;51.550;7.060;2023-12-14T02:14:38;19.07;;;14.00;;
6207;SDS011;3137;51.550;7.060;2023-12-14T02:17:04;37.87;;;17.93;;
6207;SDS011;3137;51.550;7.060;2023-12-14T02:19:31;23.40;;;14.30;;
6207;SDS011;3137;51.550;7.060;2023-12-14T02:21:58;20.77;;;15.33;;
6207;SDS011;3137;51.550;7.060;2023-12-14T02:24:24;22.43;;;14.63;;
6207;SDS011;3137;51.550;7.060;2023-12-14T02:26:50;23.60;;;14.93;;
6207;SDS011;3137;51.550;7.060;2023-12-14T02:29:29;18.03;;;14.03;;
6207;SDS011;3137;51.550;7.060;2023-12-14T02:31:55;28.07;;;15.13;;
6207;SDS011;3137;51.550;7.060;2023-12-14T02:34:22;19.73;;;13.17;;
6207;SDS011;3137;51.550;7.060;2023-12-14T02:36:51;23.70;;;14.27;;
6207;SDS011;3137;51.550;7.060;2023-12-14T02:39:17;24.10;;;13.60;;
6207;SDS011;3137;51.550;7.060;2023-12-14T02:41:44;22.20;;;13.10;;
6207;SDS011;3137;51.550;7.060;2023-12-14T02:44:10;17.37;;;13.13;;
6207;SDS011;3137;51.550;7.060;2023-12-14T02:46:36;24.37;;;14.23;;
6207;SDS011;3137;51.550;7.060;2023-12-14T02:49:03;26.13;;;14.83;;
6207;SDS011;3137;51.550;7.060;2023-12-14T02:51:30;22.40;;;13.03;;
6207;SDS011;3137;51.550;7.060;2023-12-14T02:53:56;25.80;;;14.87;;
6207;SDS011;3137;51.550;7.060;2023-12-14T02:56:24;30.90;;;15.10;;
6207;SDS011;3137;51.550;7.060;2023-12-14T02:58:50;24.07;;;15.50;;
6207;SDS011;3137;51.550;7.060;2023-12-14T03:01:20;28.33;;;16.13;;
6207;SDS011;3137;51.550;7.060;2023-12-14T03:03:50;25.60;;;14.70;;
6207;SDS011;3137;51.550;7.060;2023-12-14T03:06:16;16.63;;;12.97;;
6207;SDS011;3137;51.550;7.060;2023-12-14T03:08:43;22.50;;;13.63;;
6207;SDS011;3137;51.550;7.060;2023-12-14T03:11:10;22.30;;;13.73;;
6207;SDS011;3137;51.550;7.060;2023-12-14T03:13:36;25.67;;;13.70;;
6207;SDS011;3137;51.550;7.060;2023-12-14T03:16:03;17.67;;;13.80;;
6207;SDS011;3137;51.550;7.060;2023-12-14T03:18:29;20.93;;;14.37;;
6207;SDS011;3137;51.550;7.060;2023-12-14T03:20:56;21.33;;;14.20;;
6207;SDS011;3137;51.550;7.060;2023-12-14T03:23:22;25.43;;;14.87;;
6207;SDS011;3137;51.550;7.060;2023-12-14T03:25:49;22.53;;;13.40;;
6207;SDS011;3137;51.550;7.060;2023-12-14T03:28:15;20.73;;;13.93;;
6207;SDS011;3137;51.550;7.060;2023-12-14T03:30:41;23.93;;;12.67;;
6207;SDS011;3137;51.550;7.060;2023-12-14T03:33:08;20.27;;;13.07;;
6207;SDS011;3137;51.550;7.060;2023-12-14T03:35:35;14.60;;;11.30;;
6207;SDS011;3137;51.550;7.060;2023-12-14T03:38:02;15.50;;;11.63;;
6207;SDS011;3137;51.550;7.060;2023-12-14T03:40:28;17.10;;;11.67;;
6207;SDS011;3137;51.550;7.060;2023-12-14T03:42:55;19.23;;;12.67;;
6207;SDS011;3137;51.550;7.060;2023-12-14T03:45:21;13.60;;;12.23;;
6207;SDS011;3137;51.550;7.060;2023-12-14T03:47:47;13.80;;;11.30;;
6207;SDS011;3137;51.550;7.060;2023-12-14T03:50:14;14.80;;;12.27;;
6207;SDS011;3137;51.550;7.060;2023-12-14T03:52:40;16.07;;;11.63;;
6207;SDS011;3137;51.550;7.060;2023-12-14T03:55:07;17.77;;;12.57;;
6207;SDS011;3137;51.550;7.060;2023-12-14T03:57:34;19.47;;;12.20;;
6207;SDS011;3137;51.550;7.060;2023-12-14T04:00:01;18.60;;;12.07;;
6207;SDS011;3137;51.550;7.060;2023-12-14T04:02:30;14.73;;;12.80;;
6207;SDS011;3137;51.550;7.060;2023-12-14T04:04:56;24.13;;;12.50;;
6207;SDS011;3137;51.550;7.060;2023-12-14T04:07:23;17.53;;;11.50;;
6207;SDS011;3137;51.550;7.060;2023-12-14T04:09:49;21.57;;;11.17;;
6207;SDS011;3137;51.550;7.060;2023-12-14T04:12:16;20.20;;;11.10;;
6207;SDS011;3137;51.550;7.060;2023-12-14T04:14:42;15.43;;;10.70;;
6207;SDS011;3137;51.550;7.060;2023-12-14T04:17:09;14.43;;;10.43;;
6207;SDS011;3137;51.550;7.060;2023-12-14T04:19:37;14.87;;;10.43;;
6207;SDS011;3137;51.550;7.060;2023-12-14T04:22:05;17.47;;;10.30;;
6207;SDS011;3137;51.550;7.060;2023-12-14T04:24:32;11.40;;;10.23;;
6207;SDS011;3137;51.550;7.060;2023-12-14T04:26:58;13.20;;;11.53;;
6207;SDS011;3137;51.550;7.060;2023-12-14T04:29:24;10.93;;;9.80;;
6207;SDS011;3137;51.550;7.060;2023-12-14T04:31:51;14.07;;;11.17;;
6207;SDS011;3137;51.550;7.060;2023-12-14T04:34:19;15.60;;;11.33;;
6207;SDS011;3137;51.550;7.060;2023-12-14T04:36:45;12.87;;;11.37;;
6207;SDS011;3137;51.550;7.060;2023-12-14T04:39:12;20.37;;;12.20;;
6207;SDS011;3137;51.550;7.060;2023-12-14T04:41:38;12.83;;;10.90;;
6207;SDS011;3137;51.550;7.060;2023-12-14T04:44:04;19.27;;;13.00;;
6207;SDS011;3137;51.550;7.060;2023-12-14T04:46:31;17.83;;;12.23;;
6207;SDS011;3137;51.550;7.060;2023-12-14T04:48:58;17.43;;;13.00;;
6207;SDS011;3137;51.550;7.060;2023-12-14T04:51:24;18.43;;;12.60;;
6207;SDS011;3137;51.550;7.060;2023-12-14T04:53:50;17.00;;;12.93;;
6207;SDS011;3137;51.550;7.060;2023-12-14T04:56:17;14.60;;;11.60;;
6207;SDS011;3137;51.550;7.060;2023-12-14T04:58:43;18.03;;;12.20;;
6207;SDS011;3137;51.550;7.060;2023-12-14T05:01:10;20.67;;;12.47;;
6207;SDS011;3137;51.550;7.060;2023-12-14T05:03:38;13.37;;;10.57;;
6207;SDS011;3137;51.550;7.060;2023-12-14T05:06:04;21.07;;;11.57;;
6207;SDS011;3137;51.550;7.060;2023-12-14T05:08:31;20.57;;;11.00;;
6207;SDS011;3137;51.550;7.060;2023-12-14T05:10:57;23.03;;;10.77;;
6207;SDS011;3137;51.550;7.060;2023-12-14T05:13:24;13.47;;;10.63;;
6207;SDS011;3137;51.550;7.060;2023-12-14T05:15:51;13.63;;;11.20;;
6207;SDS011;3137;51.550;7.060;2023-12-14T05:18:18;17.47;;;11.07;;
6207;SDS011;3137;51.550;7.060;2023-12-14T05:20:45;14.77;;;10.13;;
6207;SDS011;3137;51.550;7.060;2023-12-14T05:23:12;16.43;;;11.13;;
6207;SDS011;3137;51.550;7.060;2023-12-14T05:25:38;14.00;;;10.33;;
6207;SDS011;3137;51.550;7.060;2023-12-14T05:28:05;17.17;;;12.27;;
6207;SDS011;3137;51.550;7.060;2023-12-14T05:30:31;20.53;;;13.20;;
6207;SDS011;3137;51.550;7.060;2023-12-14T05:32:57;23.00;;;13.13;;
6207;SDS011;3137;51.550;7.060;2023-12-14T05:35:24;29.40;;;15.10;;
6207;SDS011;3137;51.550;7.060;2023-12-14T05:37:51;26.40;;;13.97;;
6207;SDS011;3137;51.550;7.060;2023-12-14T05:40:17;24.60;;;13.87;;
6207;SDS011;3137;51.550;7.060;2023-12-14T05:42:43;17.17;;;13.33;;
6207;SDS011;3137;51.550;7.060;2023-12-14T05:45:10;24.23;;;13.77;;
6207;SDS011;3137;51.550;7.060;2023-12-14T05:47:38;29.37;;;15.50;;
6207;SDS011;3137;51.550;7.060;2023-12-14T05:50:05;29.80;;;14.47;;
6207;SDS011;3137;51.550;7.060;2023-12-14T05:52:31;33.37;;;15.93;;
6207;SDS011;3137;51.550;7.060;2023-12-14T05:54:58;29.63;;;15.33;;
6207;SDS011;3137;51.550;7.060;2023-12-14T05:57:29;37.80;;;16.10;;
6207;SDS011;3137;51.550;7.060;2023-12-14T05:59:56;28.53;;;16.27;;
6207;SDS011;3137;51.550;7.060;2023-12-14T06:02:23;22.70;;;15.33;;
6207;SDS011;3137;51.550;7.060;2023-12-14T06:04:49;32.97;;;15.57;;
6207;SDS011;3137;51.550;7.060;2023-12-14T06:07:16;27.33;;;16.33;;
6207;SDS011;3137;51.550;7.060;2023-12-14T06:09:43;30.20;;;15.17;;
6207;SDS011;3137;51.550;7.060;2023-12-14T06:12:10;25.60;;;14.53;;
6207;SDS011;3137;51.550;7.060;2023-12-14T06:14:36;24.13;;;15.40;;
6207;SDS011;3137;51.550;7.060;2023-12-14T06:17:03;33.20;;;15.13;;
6207;SDS011;3137;51.550;7.060;2023-12-14T06:19:30;24.70;;;15.03;;
6207;SDS011;3137;51.550;7.060;2023-12-14T06:21:56;25.80;;;15.27;;
6207;SDS011;3137;51.550;7.060;2023-12-14T06:24:22;27.47;;;15.07;;
6207;SDS011;3137;51.550;7.060;2023-12-14T06:26:49;27.90;;;15.30;;
6207;SDS011;3137;51.550;7.060;2023-12-14T06:29:15;19.03;;;14.57;;
6207;SDS011;3137;51.550;7.060;2023-12-14T06:31:42;27.13;;;15.57;;
6207;SDS011;3137;51.550;7.060;2023-12-14T06:34:08;25.27;;;13.57;;
6207;SDS011;3137;51.550;7.060;2023-12-14T06:36:35;23.30;;;13.67;;
6207;SDS011;3137;51.550;7.060;2023-12-14T06:39:01;23.67;;;14.10;;
6207;SDS011;3137;51.550;7.060;2023-12-14T06:41:29;16.13;;;13.17;;
6207;SDS011;3137;51.550;7.060;2023-12-14T06:43:56;18.87;;;12.80;;
6207;SDS011;3137;51.550;7.060;2023-12-14T06:46:22;21.27;;;13.53;;
6207;SDS011;3137;51.550;7.060;2023-12-14T06:48:49;14.30;;;12.87;;
6207;SDS011;3137;51.550;7.060;2023-12-14T06:51:16;18.83;;;13.00;;
6207;SDS011;3137;51.550;7.060;2023-12-14T06:53:43;19.53;;;12.73;;
6207;SDS011;3137;51.550;7.060;2023-12-14T06:56:10;22.37;;;13.77;;
6207;SDS011;3137;51.550;7.060;2023-12-14T06:58:38;19.90;;;13.93;;
6207;SDS011;3137;51.550;7.060;2023-12-14T07:01:05;21.10;;;13.80;;
6207;SDS011;3137;51.550;7.060;2023-12-14T07:03:32;25.20;;;14.47;;
6207;SDS011;3137;51.550;7.060;2023-12-14T07:05:58;20.00;;;13.97;;
6207;SDS011;3137;51.550;7.060;2023-12-14T07:08:25;21.17;;;14.17;;
6207;SDS011;3137;51.550;7.060;2023-12-14T07:10:51;18.37;;;13.70;;
6207;SDS011;3137;51.550;7.060;2023-12-14T07:13:18;23.97;;;13.47;;
6207;SDS011;3137;51.550;7.060;2023-12-14T07:15:44;24.53;;;13.03;;
6207;SDS011;3137;51.550;7.060;2023-12-14T07:18:11;24.50;;;14.93;;
6207;SDS011;3137;51.550;7.060;2023-12-14T07:20:37;32.83;;;15.33;;
6207;SDS011;3137;51.550;7.060;2023-12-14T07:23:04;23.63;;;14.93;;
6207;SDS011;3137;51.550;7.060;2023-12-14T07:25:31;22.73;;;14.70;;
6207;SDS011;3137;51.550;7.060;2023-12-14T07:27:57;22.90;;;14.83;;
6207;SDS011;3137;51.550;7.060;2023-12-14T07:30:24;23.10;;;14.93;;
6207;SDS011;3137;51.550;7.060;2023-12-14T07:32:50;21.10;;;14.10;;
6207;SDS011;3137;51.550;7.060;2023-12-14T07:35:18;17.70;;;12.90;;
6207;SDS011;3137;51.550;7.060;2023-12-14T07:37:45;17.20;;;13.17;;
6207;SDS011;3137;51.550;7.060;2023-12-14T07:40:12;21.03;;;13.23;;
6207;SDS011;3137;51.550;7.060;2023-12-14T07:42:38;17.73;;;13.57;;
6207;SDS011;3137;51.550;7.060;2023-12-14T07:45:05;26.50;;;15.37;;
6207;SDS011;3137;51.550;7.060;2023-12-14T07:47:32;25.57;;;15.93;;
6207;SDS011;3137;51.550;7.060;2023-12-14T07:49:58;25.97;;;15.37;;
6207;SDS011;3137;51.550;7.060;2023-12-14T07:52:25;26.53;;;15.90;;
6207;SDS011;3137;51.550;7.060;2023-12-14T07:54:51;26.47;;;14.90;;
6207;SDS011;3137;51.550;7.060;2023-12-14T07:57:17;27.57;;;15.13;;
6207;SDS011;3137;51.550;7.060;2023-12-14T07:59:44;26.97;;;15.30;;
6207;SDS011;3137;51.550;7.060;2023-12-14T08:02:11;28.53;;;15.87;;
6207;SDS011;3137;51.550;7.060;2023-12-14T08:04:38;31.40;;;17.60;;
6207;SDS011;3137;51.550;7.060;2023-12-14T08:07:04;33.00;;;18.17;;
6207;SDS011;3137;51.550;7.060;2023-12-14T08:09:31;26.20;;;16.20;;
6207;SDS011;3137;51.550;7.060;2023-12-14T08:11:58;38.00;;;18.53;;
6207;SDS011;3137;51.550;7.060;2023-12-14T08:14:24;34.63;;;18.13;;
6207;SDS011;3137;51.550;7.060;2023-12-14T08:16:51;29.27;;;17.40;;
6207;SDS011;3137;51.550;7.060;2023-12-14T08:19:18;36.87;;;19.53;;
6207;SDS011;3137;51.550;7.060;2023-12-14T08:21:44;30.20;;;17.53;;
6207;SDS011;3137;51.550;7.060;2023-12-14T08:24:11;40.50;;;18.47;;
6207;SDS011;3137;51.550;7.060;2023-12-14T08:26:38;38.33;;;18.87;;
6207;SDS011;3137;51.550;7.060;2023-12-14T08:29:04;44.10;;;18.83;;
6207;SDS011;3137;51.550;7.060;2023-12-14T08:31:30;36.03;;;18.53;;
6207;SDS011;3137;51.550;7.060;2023-12-14T08:33:57;32.87;;;19.00;;
6207;SDS011;3137;51.550;7.060;2023-12-14T08:36:23;39.67;;;19.13;;
6207;SDS011;3137;51.550;7.060;2023-12-14T08:38:50;40.63;;;20.07;;
6207;SDS011;3137;51.550;7.060;2023-12-14T08:41:16;33.70;;;17.43;;
6207;SDS011;3137;51.550;7.060;2023-12-14T08:43:43;36.77;;;18.17;;
6207;SDS011;3137;51.550;7.060;2023-12-14T08:46:09;32.77;;;19.50;;
6207;SDS011;3137;51.550;7.060;2023-12-14T08:48:36;34.57;;;17.67;;
6207;SDS011;3137;51.550;7.060;2023-12-14T08:51:03;30.37;;;18.40;;
6207;SDS011;3137;51.550;7.060;2023-12-14T08:53:31;40.90;;;18.37;;
6207;SDS011;3137;51.550;7.060;2023-12-14T08:55:57;33.07;;;17.43;;
6207;SDS011;3137;51.550;7.060;2023-12-14T08:58:24;33.97;;;16.83;;
6207;SDS011;3137;51.550;7.060;2023-12-14T09:00:50;22.67;;;15.33;;
6207;SDS011;3137;51.550;7.060;2023-12-14T09:03:19;23.23;;;15.97;;
6207;SDS011;3137;51.550;7.060;2023-12-14T09:05:46;26.17;;;15.97;;
6207;SDS011;3137;51.550;7.060;2023-12-14T09:08:12;22.47;;;15.63;;
6207;SDS011;3137;51.550;7.060;2023-12-14T09:10:39;28.23;;;15.93;;
6207;SDS011;3137;51.550;7.060;2023-12-14T09:13:06;26.00;;;17.80;;
6207;SDS011;3137;51.550;7.060;2023-12-14T09:15:32;25.00;;;15.20;;
6207;SDS011;3137;51.550;7.060;2023-12-14T09:17:59;26.33;;;16.27;;
6207;SDS011;3137;51.550;7.060;2023-12-14T09:20:26;27.53;;;16.80;;
6207;SDS011;3137;51.550;7.060;2023-12-14T09:22:53;24.73;;;15.83;;
6207;SDS011;3137;51.550;7.060;2023-12-14T09:25:19;24.07;;;15.87;;
6207;SDS011;3137;51.550;7.060;2023-12-14T09:27:46;22.40;;;14.57;;
6207;SDS011;3137;51.550;7.060;2023-12-14T09:30:13;29.67;;;15.97;;
6207;SDS011;3137;51.550;7.060;2023-12-14T09:32:39;26.10;;;15.30;;
6207;SDS011;3137;51.550;7.060;2023-12-14T09:35:06;33.20;;;16.40;;
6207;SDS011;3137;51.550;7.060;2023-12-14T09:37:33;22.93;;;15.40;;
6207;SDS011;3137;51.550;7.060;2023-12-14T09:39:59;24.23;;;14.60;;
6207;SDS011;3137;51.550;7.060;2023-12-14T09:42:26;28.23;;;16.87;;
6207;SDS011;3137;51.550;7.060;2023-12-14T09:44:52;26.20;;;17.17;;
6207;SDS011;3137;51.550;7.060;2023-12-14T09:47:20;27.67;;;15.70;;
6207;SDS011;3137;51.550;7.060;2023-12-14T09:49:46;28.90;;;17.40;;
6207;SDS011;3137;51.550;7.060;2023-12-14T09:52:14;27.20;;;15.63;;
6207;SDS011;3137;51.550;7.060;2023-12-14T09:54:40;28.30;;;16.47;;
6207;SDS011;3137;51.550;7.060;2023-12-14T09:57:07;28.40;;;16.90;;
6207;SDS011;3137;51.550;7.060;2023-12-14T09:59:33;21.20;;;15.60;;
6207;SDS011;3137;51.550;7.060;2023-12-14T10:02:08;29.87;;;17.53;;
6207;SDS011;3137;51.550;7.060;2023-12-14T10:04:36;29.43;;;18.30;;
6207;SDS011;3137;51.550;7.060;2023-12-14T10:07:03;28.63;;;17.03;;
6207;SDS011;3137;51.550;7.060;2023-12-14T10:09:34;23.93;;;15.90;;
6207;SDS011;3137;51.550;7.060;2023-12-14T10:12:04;30.47;;;16.47;;
6207;SDS011;3137;51.550;7.060;2023-12-14T10:14:32;28.20;;;15.00;;
6207;SDS011;3137;51.550;7.060;2023-12-14T10:17:02;24.07;;;14.27;;
6207;SDS011;3137;51.550;7.060;2023-12-14T10:19:44;17.40;;;13.47;;
6207;SDS011;3137;51.550;7.060;2023-12-14T10:22:16;14.33;;;11.80;;
6207;SDS011;3137;51.550;7.060;2023-12-14T10:24:46;13.83;;;11.03;;
6207;SDS011;3137;51.550;7.060;2023-12-14T10:27:14;18.93;;;11.43;;
6207;SDS011;3137;51.550;7.060;2023-12-14T10:29:42;13.37;;;10.23;;
6207;SDS011;3137;51.550;7.060;2023-12-14T10:32:11;14.30;;;10.77;;
6207;SDS011;3137;51.550;7.060;2023-12-14T10:34:38;18.10;;;9.70;;
6207;SDS011;3137;51.550;7.060;2023-12-14T10:37:05;16.80;;;10.10;;
6207;SDS011;3137;51.550;7.060;2023-12-14T10:39:36;12.20;;;10.43;;
6207;SDS011;3137;51.550;7.060;2023-12-14T10:42:04;12.63;;;10.03;;
6207;SDS011;3137;51.550;7.060;2023-12-14T10:44:44;14.47;;;10.00;;
6207;SDS011;3137;51.550;7.060;2023-12-14T10:47:32;15.53;;;10.33;;
6207;SDS011;3137;51.550;7.060;2023-12-14T10:50:00;13.20;;;10.73;;
6207;SDS011;3137;51.550;7.060;2023-12-14T10:52:28;11.83;;;10.63;;
6207;SDS011;3137;51.550;7.060;2023-12-14T10:54:56;13.60;;;10.03;;
6207;SDS011;3137;51.550;7.060;2023-12-14T10:57:26;15.60;;;11.13;;
6207;SDS011;3137;51.550;7.060;2023-12-14T10:59:58;10.80;;;9.63;;
6207;SDS011;3137;51.550;7.060;2023-12-14T11:02:26;11.03;;;9.67;;
6207;SDS011;3137;51.550;7.060;2023-12-14T11:04:55;13.07;;;9.00;;
6207;SDS011;3137;51.550;7.060;2023-12-14T11:10:11;16.97;;;10.50;;
6207;SDS011;3137;51.550;7.060;2023-12-14T11:15:38;10.93;;;9.60;;
6207;SDS011;3137;51.550;7.060;2023-12-14T11:23:14;13.30;;;10.03;;
6207;SDS011;3137;51.550;7.060;2023-12-14T11:25:48;16.07;;;10.67;;
6207;SDS011;3137;51.550;7.060;2023-12-14T11:28:23;18.73;;;11.10;;
6207;SDS011;3137;51.550;7.060;2023-12-14T11:30:53;16.93;;;10.97;;
6207;SDS011;3137;51.550;7.060;2023-12-14T11:33:21;13.47;;;10.47;;
6207;SDS011;3137;51.550;7.060;2023-12-14T11:35:50;16.30;;;12.37;;
6207;SDS011;3137;51.550;7.060;2023-12-14T11:38:18;11.50;;;10.37;;
6207;SDS011;3137;51.550;7.060;2023-12-14T11:40:48;16.57;;;11.27;;
6207;SDS011;3137;51.550;7.060;2023-12-14T11:43:16;18.77;;;11.80;;
6207;SDS011;3137;51.550;7.060;2023-12-14T11:45:43;18.87;;;12.13;;
6207;SDS011;3137;51.550;7.060;2023-12-14T11:48:10;20.87;;;12.87;;
6207;SDS011;3137;51.550;7.060;2023-12-14T11:50:39;19.70;;;12.50;;
6207;SDS011;3137;51.550;7.060;2023-12-14T11:53:06;14.40;;;11.77;;
6207;SDS011;3137;51.550;7.060;2023-12-14T11:55:34;18.87;;;11.37;;
6207;SDS011;3137;51.550;7.060;2023-12-14T11:58:02;12.63;;;11.30;;
6207;SDS011;3137;51.550;7.060;2023-12-14T12:00:29;16.97;;;12.50;;
6207;SDS011;3137;51.550;7.060;2023-12-14T12:05:59;14.73;;;11.80;;
6207;SDS011;3137;51.550;7.060;2023-12-14T12:08:26;19.63;;;10.00;;
6207;SDS011;3137;51.550;7.060;2023-12-14T12:10:52;13.37;;;11.13;;
6207;SDS011;3137;51.550;7.060;2023-12-14T12:13:20;13.67;;;10.27;;
6207;SDS011;3137;51.550;7.060;2023-12-14T12:15:47;16.93;;;11.30;;
6207;SDS011;3137;51.550;7.060;2023-12-14T12:18:15;14.03;;;10.77;;
6207;SDS011;3137;51.550;7.060;2023-12-14T12:20:45;19.10;;;10.73;;
6207;SDS011;3137;51.550;7.060;2023-12-14T12:23:12;11.90;;;10.13;;
6207;SDS011;3137;51.550;7.060;2023-12-14T12:25:39;16.00;;;10.63;;
6207;SDS011;3137;51.550;7.060;2023-12-14T12:28:06;20.50;;;9.77;;
6207;SDS011;3137;51.550;7.060;2023-12-14T12:30:32;11.80;;;9.37;;
6207;SDS011;3137;51.550;7.060;2023-12-14T12:33:03;12.57;;;10.07;;
6207;SDS011;3137;51.550;7.060;2023-12-14T12:35:29;10.03;;;9.10;;
6207;SDS011;3137;51.550;7.060;2023-12-14T12:37:57;12.37;;;9.53;;
6207;SDS011;3137;51.550;7.060;2023-12-14T12:40:24;11.30;;;10.07;;
6207;SDS011;3137;51.550;7.060;2023-12-14T12:42:56;14.97;;;10.17;;
6207;SDS011;3137;51.550;7.060;2023-12-14T12:45:22;10.13;;;9.13;;
6207;SDS011;3137;51.550;7.060;2023-12-14T12:47:52;9.07;;;8.17;;
6207;SDS011;3137;51.550;7.060;2023-12-14T12:50:19;10.43;;;9.40;;
6207;SDS011;3137;51.550;7.060;2023-12-14T12:52:46;9.67;;;8.70;;
6207;SDS011;3137;51.550;7.060;2023-12-14T12:55:15;11.73;;;9.13;;
6207;SDS011;3137;51.550;7.060;2023-12-14T12:57:42;16.30;;;9.77;;
6207;SDS011;3137;51.550;7.060;2023-12-14T13:00:09;10.03;;;9.00;;
6207;SDS011;3137;51.550;7.060;2023-12-14T13:02:39;11.53;;;9.60;;
6207;SDS011;3137;51.550;7.060;2023-12-14T13:05:07;10.17;;;9.23;;
6207;SDS011;3137;51.550;7.060;2023-12-14T13:07:37;11.93;;;10.27;;
6207;SDS011;3137;51.550;7.060;2023-12-14T13:10:04;9.37;;;8.50;;
6207;SDS011;3137;51.550;7.060;2023-12-14T13:12:53;9.33;;;8.50;;
6207;SDS011;3137;51.550;7.060;2023-12-14T13:15:21;9.07;;;8.30;;
6207;SDS011;3137;51.550;7.060;2023-12-14T13:17:50;9.23;;;8.23;;
6207;SDS011;3137;51.550;7.060;2023-12-14T13:20:17;8.30;;;7.53;;
6207;SDS011;3137;51.550;7.060;2023-12-14T13:22:44;11.90;;;7.53;;
6207;SDS011;3137;51.550;7.060;2023-12-14T13:25:11;7.73;;;7.23;;
6207;SDS011;3137;51.550;7.060;2023-12-14T13:27:37;7.37;;;6.97;;
6207;SDS011;3137;51.550;7.060;2023-12-14T13:30:04;8.57;;;7.97;;
6207;SDS011;3137;51.550;7.060;2023-12-14T13:32:32;14.10;;;8.37;;
6207;SDS011;3137;51.550;7.060;2023-12-14T13:34:58;10.13;;;8.37;;
6207;SDS011;3137;51.550;7.060;2023-12-14T13:37:26;7.93;;;7.53;;
6207;SDS011;3137;51.550;7.060;2023-12-14T13:39:52;11.43;;;9.00;;
6207;SDS011;3137;51.550;7.060;2023-12-14T13:42:19;10.03;;;9.17;;
6207;SDS011;3137;51.550;7.060;2023-12-14T13:44:45;13.00;;;10.40;;
6207;SDS011;3137;51.550;7.060;2023-12-14T13:47:12;12.80;;;10.60;;
6207;SDS011;3137;51.550;7.060;2023-12-14T13:49:38;11.93;;;10.80;;
6207;SDS011;3137;51.550;7.060;2023-12-14T13:52:05;11.93;;;10.73;;
6207;SDS011;3137;51.550;7.060;2023-12-14T13:54:31;16.53;;;11.37;;
6207;SDS011;3137;51.550;7.060;2023-12-14T13:56:58;16.33;;;12.23;;
6207;SDS011;3137;51.550;7.060;2023-12-14T13:59:24;15.57;;;11.87;;
6207;SDS011;3137;51.550;7.060;2023-12-14T14:01:51;12.43;;;10.23;;
6207;SDS011;3137;51.550;7.060;2023-12-14T14:04:17;18.73;;;12.43;;
6207;SDS011;3137;51.550;7.060;2023-12-14T14:06:44;16.87;;;12.13;;
6207;SDS011;3137;51.550;7.060;2023-12-14T14:09:10;22.57;;;12.80;;
6207;SDS011;3137;51.550;7.060;2023-12-14T14:11:37;14.23;;;12.20;;
6207;SDS011;3137;51.550;7.060;2023-12-14T14:14:04;16.77;;;12.57;;
6207;SDS011;3137;51.550;7.060;2023-12-14T14:16:30;13.87;;;12.47;;
6207;SDS011;3137;51.550;7.060;2023-12-14T14:18:57;14.53;;;13.03;;
6207;SDS011;3137;51.550;7.060;2023-12-14T14:21:24;16.23;;;11.50;;
6207;SDS011;3137;51.550;7.060;2023-12-14T14:23:51;17.57;;;12.43;;
6207;SDS011;3137;51.550;7.060;2023-12-14T14:26:17;15.80;;;11.93;;
6207;SDS011;3137;51.550;7.060;2023-12-14T14:28:44;13.17;;;11.13;;
6207;SDS011;3137;51.550;7.060;2023-12-14T14:31:10;14.80;;;11.37;;
6207;SDS011;3137;51.550;7.060;2023-12-14T14:33:37;15.17;;;11.70;;
6207;SDS011;3137;51.550;7.060;2023-12-14T14:36:04;12.40;;;11.17;;
6207;SDS011;3137;51.550;7.060;2023-12-14T14:38:31;13.97;;;11.17;;
6207;SDS011;3137;51.550;7.060;2023-12-14T14:40:58;12.53;;;11.27;;
6207;SDS011;3137;51.550;7.060;2023-12-14T14:43:24;12.27;;;10.90;;
6207;SDS011;3137;51.550;7.060;2023-12-14T14:45:51;15.87;;;11.63;;
6207;SDS011;3137;51.550;7.060;2023-12-14T14:48:17;14.53;;;11.10;;
6207;SDS011;3137;51.550;7.060;2023-12-14T14:50:45;14.70;;;10.77;;
6207;SDS011;3137;51.550;7.060;2023-12-14T14:53:11;11.27;;;10.17;;
6207;SDS011;3137;51.550;7.060;2023-12-14T14:55:39;10.90;;;9.80;;
6207;SDS011;3137;51.550;7.060;2023-12-14T14:58:05;16.47;;;9.67;;
6207;SDS011;3137;51.550;7.060;2023-12-14T15:00:32;17.93;;;9.70;;
6207;SDS011;3137;51.550;7.060;2023-12-14T15:03:04;10.73;;;9.70;;
6207;SDS011;3137;51.550;7.060;2023-12-14T15:05:35;10.80;;;9.50;;